createdAt,value
2023-07-29T00:00:14.521Z,78.92
2023-07-29T00:02:43.879Z,78.91
2023-07-29T00:05:11.618Z,78.96
2023-07-29T00:07:39.211Z,78.86
2023-07-29T00:10:07.821Z,78.88
2023-07-29T00:12:35.513Z,78.76
2023-07-29T00:15:03.250Z,78.73
2023-07-29T00:17:32.598Z,78.70
2023-07-29T00:20:00.304Z,78.63
2023-07-29T00:22:27.935Z,78.58
2023-07-29T00:24:56.539Z,78.55
2023-07-29T00:27:24.558Z,78.59
2023-07-29T00:29:52.807Z,78.61
2023-07-29T00:32:20.454Z,78.64
2023-07-29T00:34:48.077Z,78.69
2023-07-29T00:37:15.733Z,78.69
2023-07-29T00:39:43.680Z,78.80
2023-07-29T00:42:11.360Z,78.96
2023-07-29T00:44:39.050Z,78.88
2023-07-29T00:47:08.406Z,78.89
2023-07-29T00:49:36.942Z,78.97
2023-07-29T00:52:05.545Z,78.93
2023-07-29T00:54:33.323Z,79.07
2023-07-29T00:57:01.058Z,79.10
2023-07-29T00:59:30.298Z,79.07
2023-07-29T01:01:58.348Z,79.18
2023-07-29T01:04:26.065Z,79.29
2023-07-29T01:07:05.001Z,79.15
2023-07-29T01:09:42.225Z,79.14
2023-07-29T01:12:25.066Z,79.36
2023-07-29T01:14:57.291Z,79.19
2023-07-29T01:17:31.673Z,78.93
2023-07-29T01:20:04.455Z,78.69
2023-07-29T01:22:34.795Z,78.36
2023-07-29T01:25:03.014Z,78.55
2023-07-29T01:27:32.089Z,78.75
2023-07-29T01:30:00.496Z,78.63
2023-07-29T01:32:37.365Z,78.63
2023-07-29T01:35:11.381Z,78.52
2023-07-29T01:37:41.034Z,78.39
2023-07-29T01:40:10.590Z,78.37
2023-07-29T01:42:38.961Z,78.24
2023-07-29T01:45:06.975Z,78.13
2023-07-29T01:47:34.594Z,78.02
2023-07-29T01:50:02.339Z,77.80
2023-07-29T01:52:31.337Z,77.63
2023-07-29T01:54:59.029Z,77.50
2023-07-29T01:57:26.758Z,77.28
2023-07-29T01:59:54.349Z,77.21
2023-07-29T02:02:24.362Z,77.16
2023-07-29T02:04:53.405Z,77.09
2023-07-29T02:07:21.143Z,77.06
2023-07-29T02:09:48.837Z,77.12
2023-07-29T02:12:16.397Z,77.21
2023-07-29T02:14:44.393Z,77.33
2023-07-29T02:17:12.246Z,77.11
2023-07-29T02:19:39.869Z,76.82
2023-07-29T02:22:07.695Z,76.72
2023-07-29T02:24:35.401Z,76.68
2023-07-29T02:27:03.088Z,76.65
2023-07-29T02:29:31.808Z,76.54
2023-07-29T02:31:59.561Z,76.42
2023-07-29T02:34:27.216Z,76.47
2023-07-29T02:36:54.926Z,76.53
2023-07-29T02:39:24.598Z,76.41
2023-07-29T02:41:53.317Z,76.43
2023-07-29T02:44:21.444Z,76.48
2023-07-29T02:46:49.121Z,76.40
2023-07-29T02:49:16.861Z,76.24
2023-07-29T02:51:44.451Z,76.11
2023-07-29T02:54:12.011Z,76.08
2023-07-29T02:56:39.795Z,75.96
2023-07-29T02:59:07.530Z,75.85
2023-07-29T03:01:35.605Z,75.90
2023-07-29T03:04:03.356Z,75.92
2023-07-29T03:06:32.417Z,75.96
2023-07-29T03:09:00.053Z,76.03
2023-07-29T03:11:27.742Z,76.22
2023-07-29T03:13:55.354Z,76.40
2023-07-29T03:16:24.125Z,76.43
2023-07-29T03:18:52.076Z,76.39
2023-07-29T03:21:19.867Z,76.20
2023-07-29T03:23:47.505Z,75.96
2023-07-29T03:26:15.166Z,75.81
2023-07-29T03:28:45.343Z,75.72
2023-07-29T03:31:13.222Z,75.67
2023-07-29T03:33:40.910Z,75.41
2023-07-29T03:36:08.730Z,74.98
2023-07-29T03:38:41.187Z,74.55
2023-07-29T03:41:10.231Z,74.28
2023-07-29T03:43:37.913Z,74.08
2023-07-29T03:46:08.405Z,74.10
2023-07-29T03:48:37.762Z,74.15
2023-07-29T03:51:05.499Z,74.12
2023-07-29T03:53:33.112Z,74.16
2023-07-29T03:56:01.021Z,74.23
2023-07-29T03:58:29.112Z,74.32
2023-07-29T04:00:57.742Z,74.42
2023-07-29T04:03:25.551Z,74.30
2023-07-29T04:05:53.241Z,74.05
2023-07-29T04:08:20.974Z,73.82
2023-07-29T04:10:49.632Z,73.70
2023-07-29T04:13:17.211Z,73.30
2023-07-29T04:15:47.356Z,73.03
2023-07-29T04:18:15.073Z,72.95
2023-07-29T04:20:42.739Z,72.87
2023-07-29T04:23:10.557Z,72.67
2023-07-29T04:25:38.298Z,72.41
2023-07-29T04:28:06.612Z,72.21
2023-07-29T04:30:34.486Z,72.16
2023-07-29T04:33:02.377Z,71.88
2023-07-29T04:35:30.321Z,71.60
2023-07-29T04:37:58.017Z,71.08
2023-07-29T04:40:25.769Z,70.89
2023-07-29T04:42:53.583Z,70.59
2023-07-29T04:45:21.587Z,70.25
2023-07-29T04:47:49.331Z,70.04
2023-07-29T04:50:18.261Z,70.02
2023-07-29T04:52:45.995Z,70.09
2023-07-29T04:55:13.655Z,70.00
2023-07-29T04:57:41.595Z,69.95
2023-07-29T05:00:09.798Z,69.85
2023-07-29T05:02:37.548Z,69.38
2023-07-29T05:05:05.858Z,69.02
2023-07-29T05:07:34.064Z,68.90
2023-07-29T05:10:01.730Z,68.73
2023-07-29T05:12:34.076Z,68.67
2023-07-29T05:15:01.847Z,68.50
2023-07-29T05:17:30.150Z,68.70
2023-07-29T05:20:00.049Z,68.69
2023-07-29T05:22:27.810Z,68.58
2023-07-29T05:24:57.568Z,68.44
2023-07-29T05:27:28.326Z,68.28
2023-07-29T05:29:56.052Z,68.17
2023-07-29T05:32:23.965Z,67.67
2023-07-29T05:34:51.498Z,67.01
2023-07-29T05:37:19.075Z,66.26
2023-07-29T05:39:46.945Z,65.71
2023-07-29T05:42:14.623Z,65.10
2023-07-29T05:44:42.381Z,64.80
2023-07-29T05:47:10.869Z,64.56
2023-07-29T05:49:38.828Z,64.44
2023-07-29T05:52:06.833Z,64.56
2023-07-29T05:54:35.008Z,64.81
2023-07-29T05:57:02.801Z,65.05
2023-07-29T05:59:32.739Z,65.25
2023-07-29T06:02:02.684Z,65.48
2023-07-29T06:04:31.456Z,65.59
2023-07-29T06:06:59.248Z,65.39
2023-07-29T06:09:26.937Z,65.11
2023-07-29T06:11:55.916Z,65.28
2023-07-29T06:14:24.044Z,65.55
2023-07-29T06:16:51.738Z,65.38
2023-07-29T06:19:21.874Z,65.17
2023-07-29T06:21:49.990Z,64.86
2023-07-29T06:24:19.930Z,64.65
2023-07-29T06:26:47.552Z,64.18
2023-07-29T06:29:15.298Z,63.68
2023-07-29T06:31:42.998Z,63.48
2023-07-29T06:34:10.662Z,63.50
2023-07-29T06:36:38.721Z,63.30
2023-07-29T06:39:06.965Z,63.24
2023-07-29T06:41:34.674Z,62.95
2023-07-29T06:44:02.469Z,62.81
2023-07-29T06:46:30.262Z,62.51
2023-07-29T06:48:58.209Z,62.34
2023-07-29T06:51:25.869Z,62.25
2023-07-29T06:53:53.654Z,62.51
2023-07-29T06:56:21.272Z,62.82
2023-07-29T06:58:49.056Z,62.98
2023-07-29T07:01:16.783Z,62.62
2023-07-29T07:03:44.714Z,62.48
2023-07-29T07:06:12.440Z,62.16
2023-07-29T07:08:44.905Z,61.87
2023-07-29T07:11:12.603Z,61.51
2023-07-29T07:13:40.232Z,61.28
2023-07-29T07:16:08.073Z,61.22
2023-07-29T07:18:35.949Z,60.56
2023-07-29T07:21:03.562Z,60.35
2023-07-29T07:23:32.204Z,60.52
2023-07-29T07:25:59.940Z,60.29
2023-07-29T07:28:27.810Z,59.76
2023-07-29T07:30:57.080Z,59.33
2023-07-29T07:33:24.990Z,58.92
2023-07-29T07:35:52.737Z,58.66
2023-07-29T07:38:23.375Z,57.64
2023-07-29T07:40:58.553Z,57.04
2023-07-29T07:43:26.325Z,56.37
2023-07-29T07:46:06.857Z,55.98
2023-07-29T07:48:34.863Z,56.31
2023-07-29T07:51:11.758Z,55.51
2023-07-29T07:53:39.676Z,55.21
2023-07-29T07:56:08.337Z,54.87
2023-07-29T07:58:37.234Z,54.98
2023-07-29T08:01:09.097Z,54.87
2023-07-29T08:03:37.495Z,55.08
2023-07-29T08:06:07.111Z,54.86
2023-07-29T08:08:36.628Z,55.03
2023-07-29T08:11:04.303Z,54.88
2023-07-29T08:13:31.982Z,54.49
2023-07-29T08:15:59.678Z,54.46
2023-07-29T08:18:27.344Z,54.53
2023-07-29T08:20:56.833Z,54.85
2023-07-29T08:23:24.406Z,54.97
2023-07-29T08:25:57.589Z,54.83
2023-07-29T08:28:25.442Z,55.35
2023-07-29T08:30:53.248Z,55.95
2023-07-29T08:33:20.916Z,56.34
2023-07-29T08:35:48.651Z,56.67
2023-07-29T08:38:17.717Z,56.81
2023-07-29T08:40:58.493Z,56.98
2023-07-29T08:43:33.868Z,57.24
2023-07-29T08:46:02.213Z,57.51
2023-07-29T08:48:41.541Z,57.64
2023-07-29T08:51:13.450Z,58.11
2023-07-29T08:53:41.508Z,58.60
2023-07-29T08:56:09.551Z,58.73
2023-07-29T08:58:38.023Z,58.99
2023-07-29T09:01:05.761Z,59.22
2023-07-29T09:03:33.805Z,59.31
2023-07-29T09:06:03.824Z,59.39
2023-07-29T09:08:31.555Z,59.00
2023-07-29T09:10:59.372Z,58.77
2023-07-29T09:13:27.128Z,58.77
2023-07-29T09:15:59.398Z,58.59
2023-07-29T09:18:28.297Z,58.53
2023-07-29T09:21:02.344Z,57.63
2023-07-29T09:23:30.216Z,57.34
2023-07-29T09:26:04.723Z,57.37
2023-07-29T09:28:37.204Z,56.42
2023-07-29T09:31:05.446Z,55.95
2023-07-29T09:33:38.140Z,55.42
2023-07-29T09:36:12.103Z,55.34
2023-07-29T09:38:41.013Z,54.98
2023-07-29T09:41:08.909Z,54.35
2023-07-29T09:43:36.916Z,53.79
2023-07-29T09:46:06.431Z,53.49
2023-07-29T09:48:35.646Z,53.27
2023-07-29T09:51:14.267Z,52.81
2023-07-29T09:53:47.608Z,52.89
2023-07-29T09:56:16.804Z,53.15
2023-07-29T09:58:47.302Z,53.34
2023-07-29T10:01:15.711Z,53.51
2023-07-29T10:03:45.619Z,53.93
2023-07-29T10:06:15.712Z,54.37
2023-07-29T10:08:44.652Z,54.98
2023-07-29T10:11:13.020Z,55.40
2023-07-29T10:13:40.876Z,55.81
2023-07-29T10:16:08.896Z,56.37
2023-07-29T10:18:36.570Z,56.78
2023-07-29T10:21:04.744Z,57.41
2023-07-29T10:23:38.582Z,57.91
2023-07-29T10:26:09.377Z,58.20
2023-07-29T10:28:41.348Z,58.52
2023-07-29T10:31:11.102Z,58.77
2023-07-29T10:33:39.361Z,59.19
2023-07-29T10:36:07.386Z,59.43
2023-07-29T10:38:35.316Z,59.16
2023-07-29T10:41:03.033Z,58.65
2023-07-29T10:43:36.012Z,58.35
2023-07-29T10:46:24.103Z,57.94
2023-07-29T10:48:51.820Z,57.63
2023-07-29T10:51:37.678Z,57.72
2023-07-29T10:54:12.206Z,57.66
2023-07-29T10:56:44.425Z,57.48
2023-07-29T10:59:18.006Z,56.77
2023-07-29T11:02:09.969Z,55.40
2023-07-29T11:04:48.416Z,54.97
2023-07-29T11:07:19.185Z,55.17
2023-07-29T11:09:49.992Z,54.90
2023-07-29T11:12:37.951Z,54.48
2023-07-29T11:15:14.736Z,54.78
2023-07-29T11:18:02.410Z,55.28
2023-07-29T11:20:39.183Z,55.59
2023-07-29T11:23:07.306Z,55.83
2023-07-29T11:25:35.220Z,55.66
2023-07-29T11:28:05.785Z,55.57
2023-07-29T11:30:35.468Z,55.70
2023-07-29T11:33:06.465Z,55.73
2023-07-29T11:35:34.751Z,55.72
2023-07-29T11:38:02.394Z,55.72
2023-07-29T11:40:30.406Z,55.65
2023-07-29T11:42:57.973Z,55.62
2023-07-29T11:45:38.650Z,55.70
2023-07-29T11:48:19.798Z,55.27
2023-07-29T11:50:48.119Z,54.28
2023-07-29T11:53:17.519Z,53.77
2023-07-29T11:55:45.505Z,53.30
2023-07-29T11:58:13.203Z,53.18
2023-07-29T12:00:41.251Z,52.92
2023-07-29T12:03:11.265Z,52.92
2023-07-29T12:05:39.329Z,53.16
2023-07-29T12:08:07.169Z,53.11
2023-07-29T12:10:35.605Z,53.20
2023-07-29T12:13:04.741Z,53.13
2023-07-29T12:15:32.432Z,53.14
2023-07-29T12:18:01.783Z,52.83
2023-07-29T12:20:31.457Z,52.68
2023-07-29T12:23:04.127Z,52.50
2023-07-29T12:25:32.261Z,52.54
2023-07-29T12:28:09.199Z,52.70
2023-07-29T12:30:43.661Z,52.99
2023-07-29T12:33:11.725Z,53.14
2023-07-29T12:35:39.939Z,53.22
2023-07-29T12:38:07.807Z,53.23
2023-07-29T12:40:40.159Z,53.26
2023-07-29T12:43:07.855Z,53.16
2023-07-29T12:45:41.397Z,53.01
2023-07-29T12:48:10.463Z,53.24
2023-07-29T12:50:39.932Z,53.29
2023-07-29T12:53:09.238Z,52.96
2023-07-29T12:55:37.107Z,52.79
2023-07-29T12:58:05.046Z,52.13
2023-07-29T13:00:32.851Z,51.57
2023-07-29T13:03:00.702Z,51.54
2023-07-29T13:05:28.501Z,51.33
2023-07-29T13:07:56.040Z,51.41
2023-07-29T13:10:23.794Z,51.57
2023-07-29T13:12:51.371Z,51.50
2023-07-29T13:15:18.954Z,51.13
2023-07-29T13:17:46.634Z,50.67
2023-07-29T13:20:14.262Z,50.36
2023-07-29T13:22:41.927Z,49.90
2023-07-29T13:25:09.603Z,49.74
2023-07-29T13:27:37.431Z,49.65
2023-07-29T13:30:06.036Z,49.34
2023-07-29T13:32:33.964Z,49.22
2023-07-29T13:35:01.654Z,48.83
2023-07-29T13:37:31.617Z,48.25
2023-07-29T13:39:59.398Z,47.39
2023-07-29T13:42:27.442Z,46.12
2023-07-29T13:44:56.217Z,45.37
2023-07-29T13:47:23.913Z,45.19
2023-07-29T13:49:51.567Z,44.38
2023-07-29T13:52:19.177Z,44.01
2023-07-29T13:54:46.918Z,43.25
2023-07-29T13:57:14.622Z,43.11
2023-07-29T13:59:42.270Z,42.68
2023-07-29T14:02:11.037Z,42.00
2023-07-29T14:04:42.162Z,40.79
2023-07-29T14:07:13.171Z,39.73
2023-07-29T14:09:42.049Z,37.59
2023-07-29T14:12:13.601Z,37.71
2023-07-29T14:14:41.314Z,38.36
2023-07-29T14:17:12.235Z,38.54
2023-07-29T14:19:39.949Z,38.42
2023-07-29T14:22:07.752Z,39.08
2023-07-29T14:24:36.484Z,39.46
2023-07-29T14:27:04.635Z,39.40
2023-07-29T14:29:32.394Z,39.44
2023-07-29T14:32:00.231Z,39.09
2023-07-29T14:34:27.841Z,38.02
2023-07-29T14:36:57.807Z,37.87
2023-07-29T14:39:25.621Z,37.50
2023-07-29T14:41:53.315Z,37.82
2023-07-29T14:44:21.078Z,37.91
2023-07-29T14:46:49.201Z,37.93
2023-07-29T14:49:16.883Z,37.87
2023-07-29T14:51:45.117Z,37.60
2023-07-29T14:54:12.780Z,37.48
2023-07-29T14:56:40.371Z,37.60
2023-07-29T14:59:08.001Z,37.75
2023-07-29T15:01:35.888Z,38.15
2023-07-29T15:04:03.740Z,38.68
2023-07-29T15:06:31.595Z,39.03
2023-07-29T15:08:59.466Z,39.47
2023-07-29T15:11:27.064Z,40.06
2023-07-29T15:13:54.812Z,40.31
2023-07-29T15:16:25.636Z,40.76
2023-07-29T15:18:53.714Z,41.09
2023-07-29T15:21:21.574Z,41.32
2023-07-29T15:23:49.246Z,41.71
2023-07-29T15:26:16.895Z,42.26
2023-07-29T15:28:44.533Z,42.66
2023-07-29T15:31:14.676Z,43.35
2023-07-29T15:33:42.605Z,43.91
2023-07-29T15:36:10.233Z,44.32
2023-07-29T15:38:37.962Z,44.53
2023-07-29T15:41:05.737Z,44.77
2023-07-29T15:43:33.474Z,44.87
2023-07-29T15:46:01.501Z,44.71
2023-07-29T15:48:29.508Z,44.92
2023-07-29T15:50:57.161Z,45.06
2023-07-29T15:53:26.266Z,45.06
2023-07-29T15:55:53.942Z,45.38
2023-07-29T15:58:21.681Z,45.75
2023-07-29T16:00:49.317Z,46.31
2023-07-29T16:03:17.111Z,46.63
2023-07-29T16:05:47.887Z,46.69
2023-07-29T16:08:15.944Z,46.55
2023-07-29T16:10:43.665Z,46.65
2023-07-29T16:13:11.552Z,46.64
2023-07-29T16:15:39.127Z,46.51
2023-07-29T16:18:06.805Z,46.61
2023-07-29T16:20:34.419Z,46.83
2023-07-29T16:23:02.044Z,47.44
2023-07-29T16:25:30.256Z,47.94
2023-07-29T16:27:58.481Z,48.45
2023-07-29T16:30:26.261Z,49.07
2023-07-29T16:32:53.924Z,49.82
2023-07-29T16:35:21.567Z,50.40
2023-07-29T16:37:51.361Z,51.10
2023-07-29T16:40:19.542Z,51.73
2023-07-29T16:42:47.375Z,52.44
2023-07-29T16:45:15.075Z,52.75
2023-07-29T16:47:42.801Z,52.88
2023-07-29T16:50:11.250Z,53.12
2023-07-29T16:52:39.313Z,53.27
2023-07-29T16:55:08.357Z,53.30
2023-07-29T16:57:36.149Z,53.23
2023-07-29T17:00:04.869Z,53.10
2023-07-29T17:02:35.336Z,53.50
2023-07-29T17:05:05.500Z,54.06
2023-07-29T17:07:33.376Z,54.46
2023-07-29T17:10:01.870Z,54.60
2023-07-29T17:12:31.651Z,54.94
2023-07-29T17:14:59.250Z,55.33
2023-07-29T17:17:26.918Z,55.73
2023-07-29T17:19:54.674Z,56.05
2023-07-29T17:22:22.385Z,55.94
2023-07-29T17:24:50.121Z,55.76
2023-07-29T17:27:17.731Z,55.58
2023-07-29T17:29:45.774Z,55.50
2023-07-29T17:32:13.466Z,55.42
2023-07-29T17:34:41.093Z,55.23
2023-07-29T17:37:08.680Z,55.10
2023-07-29T17:39:38.345Z,55.20
2023-07-29T17:42:07.784Z,55.71
2023-07-29T17:44:35.426Z,56.17
2023-07-29T17:47:03.129Z,56.34
2023-07-29T17:49:31.083Z,56.60
2023-07-29T17:51:58.840Z,56.77
2023-07-29T17:54:26.632Z,57.18
2023-07-29T17:56:54.328Z,57.41
2023-07-29T17:59:21.979Z,57.74
2023-07-29T18:01:50.705Z,58.12
2023-07-29T18:04:18.424Z,58.38
2023-07-29T18:06:46.027Z,58.68
2023-07-29T18:09:13.716Z,58.76
2023-07-29T18:11:43.050Z,58.55
2023-07-29T18:14:10.760Z,58.52
2023-07-29T18:16:42.469Z,58.50
2023-07-29T18:19:10.326Z,58.59
2023-07-29T18:21:37.984Z,58.46
2023-07-29T18:24:06.432Z,58.34
2023-07-29T18:26:35.114Z,58.39
2023-07-29T18:29:03.051Z,58.56
2023-07-29T18:31:30.789Z,58.88
2023-07-29T18:34:01.062Z,59.19
2023-07-29T18:36:31.437Z,59.40
2023-07-29T18:38:59.188Z,59.58
2023-07-29T18:41:28.074Z,59.81
2023-07-29T18:43:59.236Z,60.13
2023-07-29T18:46:31.205Z,60.20
2023-07-29T18:49:00.185Z,60.18
2023-07-29T18:51:28.145Z,60.46
2023-07-29T18:53:55.863Z,60.82
2023-07-29T18:56:23.800Z,61.21
2023-07-29T18:58:51.410Z,61.72
2023-07-29T19:01:19.063Z,62.17
2023-07-29T19:03:47.554Z,62.47
2023-07-29T19:06:15.559Z,62.91
2023-07-29T19:08:43.216Z,63.52
2023-07-29T19:11:11.697Z,64.07
2023-07-29T19:13:41.565Z,64.45
2023-07-29T19:16:10.966Z,64.57
2023-07-29T19:18:38.606Z,64.60
2023-07-29T19:21:08.243Z,64.86
2023-07-29T19:23:36.013Z,64.87
2023-07-29T19:26:03.802Z,65.04
2023-07-29T19:28:31.420Z,65.39
2023-07-29T19:30:59.395Z,65.59
2023-07-29T19:33:27.046Z,65.42
2023-07-29T19:35:56.778Z,65.12
2023-07-29T19:38:24.833Z,64.86
2023-07-29T19:40:52.702Z,64.64
2023-07-29T19:43:20.581Z,64.59
2023-07-29T19:46:11.657Z,64.64
2023-07-29T19:48:36.917Z,64.50
2023-07-29T19:51:04.587Z,64.29
2023-07-29T19:53:32.133Z,63.90
2023-07-29T19:56:00.097Z,63.26
2023-07-29T19:58:27.896Z,62.95
2023-07-29T20:00:55.710Z,62.85
2023-07-29T20:03:23.459Z,62.85
2023-07-29T20:05:51.148Z,62.78
2023-07-29T20:08:18.848Z,62.91
2023-07-29T20:10:47.514Z,63.02
2023-07-29T20:13:15.764Z,63.13
2023-07-29T20:15:43.485Z,63.29
2023-07-29T20:18:11.452Z,63.52
2023-07-29T20:20:39.106Z,63.69
2023-07-29T20:23:08.011Z,63.84
2023-07-29T20:25:36.329Z,64.01
2023-07-29T20:28:04.127Z,64.28
2023-07-29T20:30:32.085Z,64.42
2023-07-29T20:33:00.056Z,64.62
2023-07-29T20:35:27.829Z,64.57
2023-07-29T20:37:55.626Z,64.68
2023-07-29T20:40:23.412Z,64.71
2023-07-29T20:42:51.055Z,64.79
2023-07-29T20:45:18.750Z,64.69
2023-07-29T20:47:46.480Z,64.68
2023-07-29T20:50:14.441Z,64.53
2023-07-29T20:52:42.054Z,64.43
2023-07-29T20:55:10.038Z,64.11
2023-07-29T20:57:37.750Z,63.87
2023-07-29T21:00:06.526Z,63.63
2023-07-29T21:02:35.578Z,63.54
2023-07-29T21:05:05.493Z,63.40
2023-07-29T21:07:33.337Z,63.22
2023-07-29T21:10:02.936Z,63.17
2023-07-29T21:12:33.285Z,62.96
2023-07-29T21:15:04.127Z,62.87
2023-07-29T21:17:32.365Z,62.87
2023-07-29T21:20:01.594Z,62.87
2023-07-29T21:22:31.577Z,62.82
2023-07-29T21:24:59.456Z,62.86
2023-07-29T21:27:27.224Z,62.83
2023-07-29T21:29:55.273Z,62.65
2023-07-29T21:32:23.061Z,62.50
2023-07-29T21:34:50.844Z,62.19
2023-07-29T21:37:29.591Z,62.21
2023-07-29T21:40:04.613Z,62.32
2023-07-29T21:42:34.069Z,62.23
2023-07-29T21:45:02.115Z,61.93
2023-07-29T21:47:33.673Z,61.49
2023-07-29T21:50:01.330Z,61.43
2023-07-29T21:52:29.920Z,61.58
2023-07-29T21:54:57.779Z,61.92
2023-07-29T21:57:25.720Z,62.03
2023-07-29T21:59:53.827Z,61.91
2023-07-29T22:02:21.622Z,61.96
2023-07-29T22:04:49.600Z,62.08
2023-07-29T22:07:17.482Z,62.05
2023-07-29T22:09:45.069Z,62.15
2023-07-29T22:12:12.741Z,62.10
2023-07-29T22:14:40.400Z,62.12
2023-07-29T22:17:08.112Z,62.15
2023-07-29T22:19:35.766Z,61.82
2023-07-29T22:22:04.060Z,61.73
2023-07-29T22:24:31.720Z,61.91
2023-07-29T22:27:01.250Z,62.21
2023-07-29T22:29:28.830Z,62.47
2023-07-29T22:31:56.689Z,62.71
2023-07-29T22:34:24.528Z,63.01
2023-07-29T22:36:52.343Z,63.09
2023-07-29T22:39:20.891Z,63.12
2023-07-29T22:41:48.485Z,63.20
2023-07-29T22:44:16.023Z,63.31
2023-07-29T22:46:47.109Z,63.63
2023-07-29T22:49:14.738Z,63.71
2023-07-29T22:51:42.328Z,63.72
2023-07-29T22:54:09.901Z,63.67
2023-07-29T22:56:37.915Z,63.74
2023-07-29T22:59:06.083Z,64.01
2023-07-29T23:01:33.881Z,64.45
2023-07-29T23:04:01.692Z,64.84
2023-07-29T23:06:30.604Z,65.58
2023-07-29T23:08:58.185Z,66.20
2023-07-29T23:11:25.871Z,66.75
2023-07-29T23:13:53.532Z,67.04
2023-07-29T23:16:21.405Z,67.32
2023-07-29T23:18:49.092Z,67.37
2023-07-29T23:21:16.641Z,67.63
2023-07-29T23:23:44.993Z,67.83
2023-07-29T23:26:12.772Z,68.16
2023-07-29T23:28:41.590Z,68.42
2023-07-29T23:31:09.254Z,68.71
2023-07-29T23:33:36.912Z,68.94
2023-07-29T23:36:04.772Z,69.07
2023-07-29T23:38:32.436Z,69.13
2023-07-29T23:41:00.117Z,69.12
2023-07-29T23:43:27.736Z,69.18
2023-07-29T23:45:55.800Z,69.20
2023-07-29T23:48:23.599Z,69.15
2023-07-29T23:50:51.575Z,69.15
2023-07-29T23:53:19.271Z,69.15
2023-07-29T23:55:46.944Z,69.24
2023-07-29T23:58:15.198Z,69.14
